createdAt,value
2019-03-09T00:04:29.665Z,7.00
2019-03-09T00:09:21.043Z,7.10
2019-03-09T00:14:12.486Z,7.00
2019-03-09T00:19:03.815Z,7.10
2019-03-09T00:23:55.264Z,7.30
2019-03-09T00:28:47.157Z,7.20
2019-03-09T00:33:38.039Z,7.20
2019-03-09T00:38:29.418Z,7.10
2019-03-09T00:43:20.886Z,7.10
2019-03-09T00:48:12.290Z,7.20
2019-03-09T00:53:03.692Z,7.20
2019-03-09T00:57:55.035Z,7.20
2019-03-09T01:02:46.479Z,7.20
2019-03-09T01:07:37.898Z,7.30
2019-03-09T01:12:29.276Z,7.30
2019-03-09T01:17:20.645Z,7.30
2019-03-09T01:22:12.105Z,7.30
2019-03-09T01:27:03.518Z,7.30
2019-03-09T01:31:54.912Z,7.30
2019-03-09T01:36:46.261Z,7.20
2019-03-09T01:41:37.673Z,7.40
2019-03-09T01:46:29.029Z,7.20
2019-03-09T01:51:20.492Z,7.20
2019-03-09T01:56:11.853Z,7.20
2019-03-09T02:01:03.273Z,7.20
2019-03-09T02:05:54.624Z,7.20
2019-03-09T02:10:46.162Z,7.20
2019-03-09T02:15:37.462Z,7.30
2019-03-09T02:20:28.806Z,7.30
2019-03-09T02:25:20.237Z,7.40
2019-03-09T02:30:11.654Z,7.40
2019-03-09T02:35:03.131Z,7.40
2019-03-09T02:39:54.452Z,7.40
2019-03-09T02:44:45.870Z,7.40
2019-03-09T02:49:37.284Z,7.50
2019-03-09T02:54:28.631Z,7.40
2019-03-09T03:04:11.448Z,7.50
2019-03-09T03:09:02.856Z,7.50
2019-03-09T03:13:54.297Z,7.50
2019-03-09T03:18:45.686Z,7.50
2019-03-09T03:23:37.062Z,7.50
2019-03-09T03:28:28.458Z,7.50
2019-03-09T03:33:19.870Z,7.40
2019-03-09T03:38:11.181Z,7.40
2019-03-09T03:43:02.652Z,7.40
2019-03-09T03:47:53.992Z,7.40
2019-03-09T03:52:45.409Z,7.50
2019-03-09T03:57:36.741Z,7.70
2019-03-09T04:02:28.150Z,7.20
2019-03-09T04:07:19.586Z,7.40
2019-03-09T04:12:10.958Z,7.40
2019-03-09T04:17:02.381Z,7.50
2019-03-09T04:21:53.783Z,7.60
2019-03-09T04:26:45.133Z,7.60
2019-03-09T04:31:36.588Z,7.60
2019-03-09T04:36:27.909Z,7.60
2019-03-09T04:41:19.418Z,7.60
2019-03-09T04:46:10.721Z,7.50
2019-03-09T04:51:02.148Z,7.40
2019-03-09T04:55:53.491Z,7.40
2019-03-09T05:00:44.912Z,7.40
2019-03-09T05:05:36.319Z,7.40
2019-03-09T05:10:32.205Z,7.30
2019-03-09T05:15:23.732Z,7.30
2019-03-09T05:20:15.124Z,7.20
2019-03-09T05:25:06.495Z,7.10
2019-03-09T05:30:00.188Z,7.10
2019-03-09T05:34:51.549Z,6.90
2019-03-09T05:39:42.868Z,6.80
2019-03-09T05:44:34.251Z,6.70
2019-03-09T05:49:27.911Z,6.50
2019-03-09T05:54:19.335Z,6.40
2019-03-09T05:59:13.036Z,6.40
2019-03-09T06:04:06.651Z,6.30
2019-03-09T06:08:58.090Z,6.30
2019-03-09T06:13:49.484Z,6.40
2019-03-09T06:18:43.083Z,6.40
2019-03-09T06:23:34.549Z,6.40
2019-03-09T06:28:28.146Z,6.50
2019-03-09T06:33:19.628Z,6.50
2019-03-09T06:38:11.022Z,6.60
2019-03-09T06:43:02.484Z,6.60
2019-03-09T06:47:53.846Z,6.70
2019-03-09T06:52:45.158Z,6.80
2019-03-09T06:57:38.893Z,6.90
2019-03-09T07:02:30.326Z,6.90
2019-03-09T07:07:21.752Z,7.00
2019-03-09T07:12:13.110Z,7.10
2019-03-09T07:17:04.441Z,7.30
2019-03-09T07:21:55.900Z,7.40
2019-03-09T07:26:47.297Z,7.50
2019-03-09T07:31:40.943Z,7.60
2019-03-09T07:36:32.588Z,7.80
2019-03-09T07:41:23.840Z,8.20
2019-03-09T07:46:15.249Z,8.40
2019-03-09T07:51:08.865Z,8.60
2019-03-09T07:56:04.817Z,8.70
2019-03-09T08:01:03.026Z,9.00
2019-03-09T08:05:56.671Z,9.20
2019-03-09T08:10:48.109Z,9.10
2019-03-09T08:15:39.566Z,9.50
2019-03-09T08:20:35.411Z,9.70
2019-03-09T08:25:26.896Z,9.90
2019-03-09T08:30:20.500Z,10.00
2019-03-09T08:35:11.936Z,10.00
2019-03-09T08:40:05.586Z,10.00
2019-03-09T08:44:56.959Z,10.00
2019-03-09T08:49:48.404Z,9.80
2019-03-09T08:54:42.155Z,9.80
2019-03-09T08:59:35.748Z,9.60
2019-03-09T09:04:29.415Z,9.60
2019-03-09T09:09:23.184Z,9.70
2019-03-09T09:14:14.615Z,9.90
2019-03-09T09:19:06.066Z,10.20
2019-03-09T09:23:59.651Z,10.30
2019-03-09T09:28:51.055Z,10.30
2019-03-09T09:33:42.525Z,10.30
2019-03-09T09:38:36.168Z,10.50
2019-03-09T09:43:27.575Z,10.60
2019-03-09T09:48:18.964Z,10.50
2019-03-09T09:53:10.341Z,10.40
2019-03-09T09:58:01.766Z,10.40
2019-03-09T10:02:53.138Z,10.70
2019-03-09T10:07:46.747Z,10.90
2019-03-09T10:12:38.194Z,10.90
2019-03-09T10:17:29.540Z,10.70
2019-03-09T10:22:23.193Z,10.60
2019-03-09T10:27:14.652Z,10.60
2019-03-09T10:32:06.051Z,10.70
2019-03-09T10:36:57.361Z,11.00
2019-03-09T10:41:50.998Z,11.20
2019-03-09T10:46:42.437Z,11.40
2019-03-09T10:51:33.844Z,11.40
2019-03-09T10:56:25.317Z,11.40
2019-03-09T11:01:16.644Z,11.70
2019-03-09T11:06:08.020Z,11.60
2019-03-09T11:10:59.788Z,11.60
2019-03-09T11:15:53.058Z,11.60
2019-03-09T11:20:46.715Z,11.90
2019-03-09T11:25:40.396Z,12.10
2019-03-09T11:30:31.767Z,12.00
2019-03-09T11:35:23.207Z,11.90
2019-03-09T11:40:14.595Z,11.80
2019-03-09T11:45:05.960Z,11.60
2019-03-09T11:49:59.614Z,11.70
2019-03-09T11:54:51.057Z,11.70
2019-03-09T11:59:47.450Z,11.40
2019-03-09T12:04:33.820Z,11.20
2019-03-09T12:09:25.219Z,11.10
2019-03-09T12:14:16.645Z,11.20
2019-03-09T12:19:08.042Z,11.20
2019-03-09T12:23:59.427Z,11.20
2019-03-09T12:28:50.816Z,11.40
2019-03-09T12:33:42.206Z,11.20
2019-03-09T12:38:35.909Z,11.20
2019-03-09T12:43:27.666Z,11.40
2019-03-09T12:48:18.774Z,11.60
2019-03-09T12:53:10.305Z,11.70
2019-03-09T12:58:03.691Z,11.90
2019-03-09T13:02:55.182Z,12.20
2019-03-09T13:07:46.551Z,12.30
2019-03-09T13:12:37.892Z,12.50
2019-03-09T13:17:29.361Z,12.70
2019-03-09T13:22:22.870Z,12.70
2019-03-09T13:27:14.323Z,12.40
2019-03-09T13:32:07.942Z,12.20
2019-03-09T13:36:59.336Z,12.00
2019-03-09T13:41:50.797Z,11.90
2019-03-09T13:46:44.356Z,11.60
2019-03-09T13:51:35.928Z,11.40
2019-03-09T13:56:27.188Z,11.30
2019-03-09T14:01:18.601Z,11.20
2019-03-09T14:06:09.975Z,11.10
2019-03-09T14:11:01.415Z,11.00
2019-03-09T14:15:54.960Z,10.80
2019-03-09T14:20:49.141Z,10.60
2019-03-09T14:25:40.104Z,10.50
2019-03-09T14:30:31.559Z,10.50
2019-03-09T14:35:22.958Z,10.50
2019-03-09T14:40:14.420Z,10.40
2019-03-09T14:50:01.616Z,10.40
2019-03-09T14:54:53.011Z,10.40
2019-03-09T14:59:44.428Z,10.60
2019-03-09T15:04:35.806Z,10.70
2019-03-09T15:09:27.188Z,10.80
2019-03-09T15:14:18.521Z,10.90
2019-03-09T15:19:12.128Z,10.80
2019-03-09T15:24:05.817Z,10.70
2019-03-09T15:28:59.492Z,10.60
2019-03-09T15:33:53.155Z,10.60
2019-03-09T15:38:44.647Z,10.40
2019-03-09T15:43:36.099Z,10.40
2019-03-09T15:53:21.257Z,10.20
2019-03-09T15:58:12.434Z,10.30
2019-03-09T16:03:04.215Z,10.40
2019-03-09T16:07:57.430Z,10.50
2019-03-09T16:12:48.899Z,10.50
2019-03-09T16:17:40.321Z,10.50
2019-03-09T16:22:31.735Z,10.60
2019-03-09T16:27:25.332Z,10.50
2019-03-09T16:32:16.702Z,10.50
2019-03-09T16:37:08.417Z,10.50
2019-03-09T16:41:59.604Z,10.40
2019-03-09T16:46:53.076Z,10.40
2019-03-09T16:51:46.804Z,10.30
2019-03-09T16:56:40.461Z,10.40
2019-03-09T17:01:34.165Z,10.20
2019-03-09T17:06:27.783Z,10.10
2019-03-09T17:11:19.237Z,10.10
2019-03-09T17:16:12.892Z,10.10
2019-03-09T17:21:06.586Z,10.00
2019-03-09T17:25:57.994Z,10.00
2019-03-09T17:30:49.446Z,9.90
2019-03-09T17:35:40.819Z,9.80
2019-03-09T17:40:32.301Z,9.80
2019-03-09T17:45:23.696Z,9.90
2019-03-09T17:50:15.072Z,9.90
2019-03-09T17:55:06.478Z,9.90
2019-03-09T18:00:00.304Z,10.00
2019-03-09T18:04:51.596Z,10.00
2019-03-09T18:09:45.218Z,10.00
2019-03-09T18:14:36.675Z,10.00
2019-03-09T18:19:28.124Z,10.00
2019-03-09T18:24:19.577Z,9.90
2019-03-09T18:29:10.912Z,9.90
2019-03-09T18:34:02.255Z,9.90
2019-03-09T18:38:53.630Z,9.90
2019-03-09T18:43:45.092Z,9.90
2019-03-09T18:48:36.490Z,10.00
2019-03-09T18:53:27.922Z,9.90
2019-03-09T18:58:21.669Z,9.90
2019-03-09T19:03:15.320Z,9.90
2019-03-09T19:08:06.733Z,9.90
2019-03-09T19:12:58.136Z,9.90
2019-03-09T19:17:49.582Z,10.00
2019-03-09T19:22:41.002Z,10.00
2019-03-09T19:27:32.448Z,10.00
2019-03-09T19:32:23.796Z,10.00
2019-03-09T19:37:15.182Z,10.00
2019-03-09T19:42:06.576Z,10.00
2019-03-09T19:46:57.908Z,10.10
2019-03-09T19:51:49.358Z,10.10
2019-03-09T19:56:40.714Z,10.10
2019-03-09T20:01:32.449Z,10.00
2019-03-09T20:06:23.584Z,10.10
2019-03-09T20:11:15.059Z,10.10
2019-03-09T20:16:06.552Z,10.10
2019-03-09T20:20:58.048Z,10.10
2019-03-09T20:25:49.421Z,10.10
2019-03-09T20:30:40.805Z,10.00
2019-03-09T20:35:34.399Z,10.10
2019-03-09T20:40:25.888Z,10.00
2019-03-09T20:45:17.248Z,10.10
2019-03-09T20:50:08.690Z,10.10
2019-03-09T20:55:00.109Z,10.00
2019-03-09T20:59:53.752Z,10.00
2019-03-09T21:04:47.365Z,10.10
2019-03-09T21:09:38.817Z,10.10
2019-03-09T21:14:30.353Z,10.10
2019-03-09T21:19:21.606Z,10.20
2019-03-09T21:24:13.073Z,10.10
2019-03-09T21:29:04.418Z,10.10
2019-03-09T21:33:55.877Z,10.00
2019-03-09T21:38:47.308Z,10.00
2019-03-09T21:43:38.712Z,10.00
2019-03-09T21:48:32.322Z,9.90
2019-03-09T21:53:23.791Z,9.90
2019-03-09T21:58:15.189Z,9.80
2019-03-09T22:03:06.622Z,9.70
2019-03-09T22:08:00.219Z,9.70
2019-03-09T22:12:51.720Z,9.70
2019-03-09T22:17:45.272Z,9.70
2019-03-09T22:22:36.771Z,9.70
2019-03-09T22:27:28.147Z,9.60
2019-03-09T22:32:20.372Z,9.70
2019-03-09T22:37:11.031Z,9.60
2019-03-09T22:42:04.598Z,9.60
2019-03-09T22:46:58.289Z,9.60
2019-03-09T22:51:49.711Z,9.60
2019-03-09T22:56:41.115Z,9.60
2019-03-09T23:01:32.560Z,9.60
2019-03-09T23:06:23.851Z,9.50
2019-03-09T23:11:15.312Z,9.50
2019-03-09T23:16:06.781Z,9.50
2019-03-09T23:20:58.179Z,9.10
2019-03-09T23:25:49.617Z,9.50
2019-03-09T23:30:43.428Z,9.40
2019-03-09T23:35:35.026Z,9.60
2019-03-09T23:40:26.439Z,9.50
2019-03-09T23:45:17.898Z,9.50
2019-03-09T23:50:09.240Z,9.60
2019-03-09T23:55:00.796Z,9.60
2019-03-09T23:59:52.071Z,9.60
